createdAt,value
2023-03-13T00:01:58.893Z,10.68
2023-03-13T00:04:25.923Z,8.32
2023-03-13T00:06:53.019Z,9.13
2023-03-13T00:09:20.036Z,9.10
2023-03-13T00:11:47.465Z,10.23
2023-03-13T00:14:14.619Z,10.40
2023-03-13T00:16:41.922Z,9.98
2023-03-13T00:19:10.146Z,10.52
2023-03-13T00:21:38.193Z,12.00
2023-03-13T00:24:05.564Z,10.60
2023-03-13T00:26:32.625Z,9.25
2023-03-13T00:28:59.805Z,10.70
2023-03-13T00:31:30.333Z,10.02
2023-03-13T00:34:02.646Z,11.60
2023-03-13T00:36:33.108Z,15.77
2023-03-13T00:39:03.178Z,13.85
2023-03-13T00:41:32.200Z,15.18
2023-03-13T00:43:59.663Z,15.45
2023-03-13T00:46:29.288Z,20.10
2023-03-13T00:48:57.123Z,16.27
2023-03-13T00:51:27.252Z,22.02
2023-03-13T00:53:56.297Z,20.08
2023-03-13T00:56:23.925Z,21.48
2023-03-13T00:58:51.493Z,19.80
2023-03-13T01:01:33.996Z,20.45
2023-03-13T01:04:12.252Z,24.27
2023-03-13T01:06:43.158Z,20.65
2023-03-13T01:09:13.664Z,23.17
2023-03-13T01:11:43.415Z,25.90
2023-03-13T01:14:14.007Z,23.88
2023-03-13T01:16:41.866Z,24.17
2023-03-13T01:19:15.317Z,20.98
2023-03-13T01:21:44.808Z,22.63
2023-03-13T01:24:12.139Z,26.35
2023-03-13T01:26:39.349Z,24.60
2023-03-13T01:29:06.437Z,22.88
2023-03-13T01:31:36.019Z,19.40
2023-03-13T01:34:06.824Z,22.58
2023-03-13T01:36:36.248Z,25.42
2023-03-13T01:39:04.218Z,21.95
2023-03-13T01:41:31.778Z,22.15
2023-03-13T01:43:59.354Z,21.77
2023-03-13T01:46:38.681Z,19.85
2023-03-13T01:49:38.340Z,25.33
2023-03-13T01:52:32.140Z,24.20
2023-03-13T01:55:16.309Z,19.23
2023-03-13T01:57:52.190Z,25.05
2023-03-13T02:00:25.237Z,23.65
2023-03-13T02:02:57.620Z,26.02
2023-03-13T02:05:28.343Z,27.08
2023-03-13T02:08:30.096Z,29.02
2023-03-13T02:11:40.838Z,25.00
2023-03-13T02:14:08.063Z,24.85
2023-03-13T02:16:36.492Z,26.10
2023-03-13T02:19:17.775Z,26.70
2023-03-13T02:22:05.272Z,29.48
2023-03-13T02:25:07.616Z,29.15
2023-03-13T02:27:34.816Z,30.00
2023-03-13T02:30:05.643Z,26.67
2023-03-13T02:32:33.369Z,32.38
2023-03-13T02:35:09.557Z,31.35
2023-03-13T02:37:38.368Z,30.45
2023-03-13T02:40:13.163Z,28.90
2023-03-13T02:42:42.645Z,31.55
2023-03-13T02:45:13.807Z,30.85
2023-03-13T02:47:41.358Z,37.92
2023-03-13T02:50:10.219Z,34.88
2023-03-13T02:52:43.482Z,37.40
2023-03-13T02:55:18.885Z,40.50
2023-03-13T02:57:45.900Z,44.25
2023-03-13T03:00:13.310Z,45.05
2023-03-13T03:02:41.121Z,42.58
2023-03-13T03:05:08.587Z,47.20
2023-03-13T03:07:35.751Z,46.47
2023-03-13T03:10:03.101Z,42.05
2023-03-13T03:12:30.176Z,37.20
2023-03-13T03:14:57.158Z,43.88
2023-03-13T03:17:25.156Z,45.05
2023-03-13T03:19:53.589Z,38.78
2023-03-13T03:22:20.761Z,40.95
2023-03-13T03:24:47.769Z,58.08
2023-03-13T03:27:15.145Z,53.70
2023-03-13T03:29:47.584Z,52.40
2023-03-13T03:32:15.289Z,45.58
2023-03-13T03:34:42.366Z,49.55
2023-03-13T03:37:09.624Z,44.97
2023-03-13T03:39:36.937Z,52.70
2023-03-13T03:42:05.970Z,53.45
2023-03-13T03:44:33.210Z,49.10
2023-03-13T03:47:00.957Z,51.03
2023-03-13T03:49:32.650Z,53.13
2023-03-13T03:51:59.601Z,62.95
2023-03-13T03:54:32.190Z,51.78
2023-03-13T03:57:00.232Z,52.58
2023-03-13T03:59:27.319Z,67.00
2023-03-13T04:01:57.338Z,53.80
2023-03-13T04:04:26.855Z,58.00
2023-03-13T04:07:02.302Z,48.85
2023-03-13T04:09:32.190Z,48.47
2023-03-13T04:12:01.218Z,53.60
2023-03-13T04:14:30.299Z,54.20
2023-03-13T04:16:58.354Z,55.90
2023-03-13T04:19:25.420Z,54.55
2023-03-13T04:21:52.476Z,54.08
2023-03-13T04:24:20.011Z,54.15
2023-03-13T04:26:47.841Z,50.55
2023-03-13T04:29:15.723Z,54.53
2023-03-13T04:32:12.153Z,46.20
2023-03-13T04:37:40.505Z,56.08
2023-03-13T04:40:23.255Z,53.63
2023-03-13T04:43:06.446Z,42.28
2023-03-13T04:45:59.924Z,44.80
2023-03-13T04:48:39.564Z,46.50
2023-03-13T04:51:33.803Z,46.83
2023-03-13T04:54:17.685Z,43.50
2023-03-13T04:56:53.913Z,44.58
2023-03-13T04:59:39.783Z,43.05
2023-03-13T05:02:25.182Z,51.63
2023-03-13T05:05:01.638Z,43.17
2023-03-13T05:07:28.722Z,46.53
2023-03-13T05:10:01.758Z,51.90
2023-03-13T05:12:49.157Z,47.30
2023-03-13T05:18:15.722Z,41.15
2023-03-13T05:21:01.704Z,40.42
2023-03-13T05:23:38.187Z,44.95
2023-03-13T05:26:43.464Z,43.97
2023-03-13T05:29:30.742Z,37.25
2023-03-13T05:32:07.097Z,38.97
2023-03-13T05:34:43.231Z,41.13
2023-03-13T05:37:33.399Z,40.00
2023-03-13T05:40:19.212Z,40.88
2023-03-13T05:43:14.980Z,44.17
2023-03-13T05:45:58.952Z,38.25
2023-03-13T05:48:40.088Z,39.33
2023-03-13T05:51:25.537Z,36.60
2023-03-13T05:53:52.617Z,33.92
2023-03-13T05:56:32.402Z,43.70
2023-03-13T05:59:19.826Z,34.25
2023-03-13T06:01:57.072Z,36.50
2023-03-13T06:04:30.491Z,35.22
2023-03-13T06:06:57.606Z,31.58
2023-03-13T06:09:24.927Z,35.83
2023-03-13T06:11:53.340Z,30.67
2023-03-13T06:14:20.458Z,34.63
2023-03-13T06:17:19.993Z,26.53
2023-03-13T06:19:47.683Z,29.30
2023-03-13T06:22:17.222Z,25.25
2023-03-13T06:24:49.760Z,31.42
2023-03-13T06:27:17.225Z,32.92
2023-03-13T06:29:44.273Z,32.00
2023-03-13T06:32:11.317Z,26.33
2023-03-13T06:34:38.488Z,28.75
2023-03-13T06:37:05.729Z,26.65
2023-03-13T06:39:32.923Z,28.02
2023-03-13T06:42:00.109Z,30.33
2023-03-13T06:44:27.436Z,25.08
2023-03-13T06:46:54.671Z,27.35
2023-03-13T06:49:21.683Z,27.25
2023-03-13T06:51:48.688Z,24.85
2023-03-13T06:54:15.734Z,23.60
2023-03-13T06:56:42.830Z,23.23
2023-03-13T06:59:09.966Z,22.27
2023-03-13T07:01:37.074Z,20.55
2023-03-13T07:04:04.213Z,26.83
2023-03-13T07:06:31.259Z,19.90
2023-03-13T07:08:58.287Z,18.08
2023-03-13T07:11:26.145Z,20.77
2023-03-13T07:14:06.532Z,19.35
2023-03-13T07:16:42.243Z,17.17
2023-03-13T07:19:09.372Z,20.15
2023-03-13T07:21:36.515Z,23.38
2023-03-13T07:24:04.368Z,18.73
2023-03-13T07:26:31.432Z,22.83
2023-03-13T07:28:58.629Z,22.20
2023-03-13T07:31:25.974Z,21.40
2023-03-13T07:33:56.823Z,21.45
2023-03-13T07:36:25.502Z,20.30
2023-03-13T07:38:53.403Z,18.77
2023-03-13T07:41:20.901Z,17.45
2023-03-13T07:43:48.420Z,20.90
2023-03-13T07:46:19.103Z,22.30
2023-03-13T07:48:47.263Z,18.25
2023-03-13T07:51:25.203Z,17.35
2023-03-13T07:53:57.459Z,16.80
2023-03-13T07:56:25.204Z,19.48
2023-03-13T07:58:52.299Z,17.38
2023-03-13T08:01:24.452Z,18.45
2023-03-13T08:03:54.724Z,14.57
2023-03-13T08:06:26.468Z,16.40
2023-03-13T08:08:56.969Z,19.83
2023-03-13T08:11:26.172Z,19.35
2023-03-13T08:13:54.686Z,15.75
2023-03-13T08:16:30.638Z,18.75
2023-03-13T08:18:59.467Z,22.25
2023-03-13T08:21:29.121Z,17.45
2023-03-13T08:23:59.277Z,19.85
2023-03-13T08:26:28.599Z,21.98
2023-03-13T08:29:00.318Z,18.48
2023-03-13T08:31:33.015Z,17.92
2023-03-13T08:34:00.474Z,16.88
2023-03-13T08:36:32.606Z,16.40
2023-03-13T08:39:05.737Z,17.50
2023-03-13T08:41:36.347Z,18.30
2023-03-13T08:44:05.275Z,18.67
2023-03-13T08:46:35.417Z,17.92
2023-03-13T08:49:04.704Z,20.52
2023-03-13T08:51:31.731Z,17.63
2023-03-13T08:53:58.824Z,16.75
2023-03-13T08:56:28.780Z,17.80
2023-03-13T08:58:58.613Z,17.80
2023-03-13T09:01:30.597Z,19.88
2023-03-13T09:03:58.079Z,17.90
2023-03-13T09:06:25.238Z,20.40
2023-03-13T09:08:52.447Z,19.83
2023-03-13T09:11:21.915Z,19.05
2023-03-13T09:13:51.102Z,19.60
2023-03-13T09:16:23.797Z,19.70
2023-03-13T09:18:52.590Z,16.40
2023-03-13T09:21:25.123Z,18.80
2023-03-13T09:23:53.042Z,17.17
2023-03-13T09:26:23.333Z,17.60
2023-03-13T09:28:52.680Z,20.17
2023-03-13T09:31:27.361Z,21.70
2023-03-13T09:33:54.973Z,21.67
2023-03-13T09:36:24.153Z,20.75
2023-03-13T09:38:53.309Z,16.58
2023-03-13T09:41:35.256Z,20.35
2023-03-13T09:44:19.721Z,19.80
2023-03-13T09:47:00.215Z,20.85
2023-03-13T09:49:48.572Z,17.65
2023-03-13T09:52:19.608Z,20.50
2023-03-13T09:55:07.022Z,20.42
2023-03-13T09:57:58.690Z,26.08
2023-03-13T10:00:34.691Z,16.83
2023-03-13T10:03:28.337Z,20.33
2023-03-13T10:06:19.798Z,18.58
2023-03-13T10:08:47.109Z,22.77
2023-03-13T10:11:28.312Z,22.02
2023-03-13T10:14:27.377Z,23.50
2023-03-13T10:17:02.229Z,22.30
2023-03-13T10:19:38.236Z,16.35
2023-03-13T10:22:14.661Z,23.58
2023-03-13T10:24:55.097Z,20.90
2023-03-13T10:29:49.158Z,22.15
2023-03-13T10:32:18.884Z,18.60
2023-03-13T10:34:45.947Z,22.83
2023-03-13T10:37:17.061Z,24.08
2023-03-13T10:39:44.057Z,23.73
2023-03-13T10:42:35.381Z,21.63
2023-03-13T10:45:06.703Z,24.48
2023-03-13T10:47:35.487Z,24.23
2023-03-13T10:50:04.450Z,25.80
2023-03-13T10:52:43.345Z,24.98
2023-03-13T10:55:13.826Z,22.60
2023-03-13T10:57:52.077Z,29.50
2023-03-13T11:00:39.423Z,23.50
2023-03-13T11:03:18.694Z,30.23
2023-03-13T11:06:02.685Z,30.02
2023-03-13T11:08:36.075Z,30.70
2023-03-13T11:11:05.845Z,27.08
2023-03-13T11:13:43.902Z,29.90
2023-03-13T11:16:20.558Z,34.17
2023-03-13T11:19:02.395Z,30.73
2023-03-13T11:21:40.026Z,30.63
2023-03-13T11:24:15.605Z,31.05
2023-03-13T11:27:04.082Z,34.40
2023-03-13T11:29:49.386Z,36.78
2023-03-13T11:32:42.553Z,36.92
2023-03-13T11:35:40.220Z,34.80
2023-03-13T11:38:33.175Z,38.95
2023-03-13T11:41:29.888Z,36.25
2023-03-13T11:43:56.901Z,31.65
2023-03-13T11:46:42.826Z,29.73
2023-03-13T11:49:26.374Z,31.48
2023-03-13T11:52:12.177Z,35.03
2023-03-13T11:55:13.573Z,36.35
2023-03-13T11:58:03.634Z,35.75
2023-03-13T12:00:51.156Z,39.85
2023-03-13T12:03:44.866Z,29.60
2023-03-13T12:06:47.399Z,31.48
2023-03-13T12:09:31.105Z,31.08
2023-03-13T12:12:06.351Z,36.53
2023-03-13T12:14:35.504Z,37.13
2023-03-13T12:17:27.485Z,38.10
2023-03-13T12:20:08.210Z,31.30
2023-03-13T12:22:54.309Z,34.78
2023-03-13T12:25:32.129Z,35.75
2023-03-13T12:28:26.122Z,33.65
2023-03-13T12:31:01.411Z,41.97
2023-03-13T12:33:38.266Z,35.13
2023-03-13T12:36:18.565Z,36.25
2023-03-13T12:41:24.978Z,40.47
2023-03-13T12:44:07.710Z,29.80
2023-03-13T12:46:41.223Z,37.10
2023-03-13T12:49:32.678Z,31.77
2023-03-13T12:52:15.017Z,36.50
2023-03-13T12:54:51.444Z,33.25
2023-03-13T12:57:42.401Z,26.35
2023-03-13T13:00:20.986Z,30.58
2023-03-13T13:03:01.090Z,28.40
2023-03-13T13:05:28.391Z,24.45
2023-03-13T13:07:56.869Z,24.70
2023-03-13T13:10:26.624Z,22.98
2023-03-13T13:13:15.697Z,29.23
2023-03-13T13:16:00.792Z,25.65
2023-03-13T13:18:32.709Z,19.00
2023-03-13T13:21:02.543Z,18.58
2023-03-13T13:23:42.324Z,22.65
2023-03-13T13:26:30.240Z,23.40
2023-03-13T13:29:01.838Z,17.50
2023-03-13T13:31:47.780Z,18.33
2023-03-13T13:34:54.791Z,20.38
2023-03-13T13:37:27.785Z,17.50
2023-03-13T13:40:17.522Z,19.00
2023-03-13T13:42:47.747Z,16.17
2023-03-13T13:45:14.793Z,13.48
2023-03-13T13:47:44.731Z,17.70
2023-03-13T13:50:26.701Z,17.30
2023-03-13T13:53:13.896Z,19.92
2023-03-13T13:55:43.192Z,15.80
2023-03-13T13:58:31.276Z,19.17
2023-03-13T14:01:07.256Z,17.75
2023-03-13T14:03:36.937Z,19.90
2023-03-13T14:06:13.295Z,21.55
2023-03-13T14:08:42.544Z,18.98
2023-03-13T14:11:30.709Z,18.83
2023-03-13T14:14:30.279Z,17.00
2023-03-13T14:16:58.063Z,17.60
2023-03-13T14:19:28.498Z,17.23
2023-03-13T14:22:07.148Z,17.92
2023-03-13T14:24:35.942Z,20.40
2023-03-13T14:27:15.591Z,18.60
2023-03-13T14:29:43.229Z,19.73
2023-03-13T14:32:10.632Z,17.35
2023-03-13T14:34:37.945Z,18.73
2023-03-13T14:37:35.872Z,17.80
2023-03-13T14:40:11.943Z,19.15
2023-03-13T14:42:43.988Z,18.25
2023-03-13T14:45:19.285Z,23.10
2023-03-13T14:47:46.553Z,21.92
2023-03-13T14:50:15.612Z,19.80
2023-03-13T14:52:49.885Z,20.58
2023-03-13T14:55:22.673Z,17.80
2023-03-13T14:58:05.390Z,19.75
2023-03-13T15:00:36.812Z,18.98
2023-03-13T15:03:22.059Z,18.38
2023-03-13T15:06:07.591Z,19.17
2023-03-13T15:08:46.890Z,16.48
2023-03-13T15:11:32.388Z,18.40
2023-03-13T15:13:59.624Z,20.60
2023-03-13T15:16:28.140Z,15.70
2023-03-13T15:18:56.429Z,16.27
2023-03-13T15:21:35.439Z,15.07
2023-03-13T15:24:12.769Z,16.02
2023-03-13T15:26:39.925Z,16.13
2023-03-13T15:29:07.380Z,16.83
2023-03-13T15:31:34.665Z,14.30
2023-03-13T15:34:01.884Z,17.20
2023-03-13T15:36:30.437Z,13.98
2023-03-13T15:38:57.777Z,14.15
2023-03-13T15:41:25.260Z,14.10
2023-03-13T15:43:52.955Z,14.88
2023-03-13T15:46:20.898Z,14.13
2023-03-13T15:48:48.550Z,14.85
2023-03-13T15:51:17.427Z,12.52
2023-03-13T15:53:46.526Z,11.63
2023-03-13T15:56:19.026Z,12.07
2023-03-13T15:58:47.876Z,11.65
2023-03-13T16:01:17.830Z,13.68
2023-03-13T16:03:46.372Z,14.10
2023-03-13T16:06:20.757Z,13.27
2023-03-13T16:08:48.231Z,11.48
2023-03-13T16:11:17.058Z,13.45
2023-03-13T16:13:44.994Z,11.57
2023-03-13T16:16:24.813Z,14.15
2023-03-13T16:18:52.889Z,12.20
2023-03-13T16:21:33.384Z,10.98
2023-03-13T16:24:00.706Z,12.10
2023-03-13T16:26:30.917Z,13.25
2023-03-13T16:28:58.598Z,12.80
2023-03-13T16:31:28.738Z,12.98
2023-03-13T16:33:57.032Z,12.98
2023-03-13T16:36:31.385Z,10.05
2023-03-13T16:39:00.033Z,14.82
2023-03-13T16:41:28.601Z,11.10
2023-03-13T16:43:56.610Z,11.65
2023-03-13T16:46:32.853Z,12.63
2023-03-13T16:49:00.031Z,10.75
2023-03-13T16:51:28.391Z,14.13
2023-03-13T16:53:57.275Z,11.95
2023-03-13T16:56:36.607Z,13.35
2023-03-13T16:59:07.724Z,12.70
2023-03-13T17:01:36.122Z,12.27
2023-03-13T17:04:03.586Z,11.43
2023-03-13T17:06:38.748Z,12.82
2023-03-13T17:09:12.222Z,12.98
2023-03-13T17:11:39.462Z,12.07
2023-03-13T17:14:07.235Z,12.60
2023-03-13T17:16:42.609Z,13.15
2023-03-13T17:19:17.206Z,11.95
2023-03-13T17:21:44.352Z,11.50
2023-03-13T17:24:11.572Z,11.90
2023-03-13T17:26:40.085Z,11.57
2023-03-13T17:29:08.584Z,11.23
2023-03-13T17:31:38.865Z,10.50
2023-03-13T17:34:06.845Z,10.68
2023-03-13T17:36:35.155Z,12.02
2023-03-13T17:39:04.932Z,13.18
2023-03-13T17:41:33.697Z,9.68
2023-03-13T17:44:00.768Z,10.80
2023-03-13T17:46:38.781Z,10.43
2023-03-13T17:49:06.126Z,13.73
2023-03-13T17:51:35.054Z,11.20
2023-03-13T17:54:02.734Z,8.20
2023-03-13T17:56:38.900Z,9.50
2023-03-13T17:59:14.713Z,12.43
2023-03-13T18:01:42.716Z,13.27
2023-03-13T18:04:10.939Z,11.38
2023-03-13T18:06:50.677Z,10.35
2023-03-13T18:09:20.948Z,9.95
2023-03-13T18:11:49.209Z,8.13
2023-03-13T18:14:16.294Z,8.10
2023-03-13T18:16:50.552Z,9.05
2023-03-13T18:19:21.215Z,9.43
2023-03-13T18:21:51.992Z,8.70
2023-03-13T18:24:19.711Z,9.70
2023-03-13T18:26:48.558Z,8.95
2023-03-13T18:29:21.598Z,10.32
2023-03-13T18:31:50.774Z,9.75
2023-03-13T18:34:17.899Z,9.43
2023-03-13T18:36:44.989Z,12.63
2023-03-13T18:39:17.412Z,10.20
2023-03-13T18:41:45.442Z,9.98
2023-03-13T18:44:15.810Z,8.80
2023-03-13T18:49:17.378Z,11.73
2023-03-13T18:51:44.848Z,11.25
2023-03-13T18:54:11.902Z,10.63
2023-03-13T18:56:39.330Z,10.93
2023-03-13T18:59:11.065Z,11.73
2023-03-13T19:01:38.075Z,11.02
2023-03-13T19:04:05.172Z,11.43
2023-03-13T19:06:34.872Z,13.05
2023-03-13T19:09:42.299Z,14.60
2023-03-13T19:12:08.182Z,10.60
2023-03-13T19:14:35.226Z,12.80
2023-03-13T19:17:02.337Z,13.25
2023-03-13T19:19:32.069Z,12.20
2023-03-13T19:21:59.184Z,11.52
2023-03-13T19:24:26.970Z,11.65
2023-03-13T19:26:58.968Z,13.40
2023-03-13T19:29:28.690Z,11.25
2023-03-13T19:31:56.062Z,13.02
2023-03-13T19:34:23.318Z,14.60
2023-03-13T19:36:53.290Z,13.07
2023-03-13T19:39:25.619Z,11.15
2023-03-13T19:41:53.736Z,11.23
2023-03-13T19:44:21.896Z,13.50
2023-03-13T19:46:49.300Z,14.45
2023-03-13T19:49:18.739Z,15.13
2023-03-13T19:51:46.594Z,16.20
2023-03-13T19:54:14.016Z,15.00
2023-03-13T19:56:43.974Z,13.25
2023-03-13T19:59:19.309Z,13.98
2023-03-13T20:01:46.971Z,15.10
2023-03-13T20:04:14.238Z,13.43
2023-03-13T20:06:43.217Z,11.98
2023-03-13T20:09:12.762Z,13.23
2023-03-13T20:11:39.879Z,12.07
2023-03-13T20:14:07.240Z,13.00
2023-03-13T20:16:35.368Z,13.05
2023-03-13T20:19:02.955Z,16.20
2023-03-13T20:21:32.109Z,13.30
2023-03-13T20:23:59.987Z,13.25
2023-03-13T20:26:29.137Z,12.25
2023-03-13T20:28:56.908Z,11.88
2023-03-13T20:31:30.061Z,11.00
2023-03-13T20:33:58.960Z,10.43
2023-03-13T20:36:26.931Z,10.55
2023-03-13T20:38:54.155Z,10.45
2023-03-13T20:41:25.207Z,11.70
2023-03-13T20:43:52.933Z,11.88
2023-03-13T20:46:20.504Z,10.68
2023-03-13T20:48:47.757Z,11.50
2023-03-13T20:51:14.869Z,10.85
2023-03-13T20:53:42.876Z,11.60
2023-03-13T20:56:11.706Z,11.32
2023-03-13T20:58:39.524Z,8.50
2023-03-13T21:01:07.587Z,11.80
2023-03-13T21:03:36.110Z,10.25
2023-03-13T21:06:15.217Z,9.35
2023-03-13T21:08:43.316Z,9.82
2023-03-13T21:11:23.583Z,10.10
2023-03-13T21:13:51.656Z,8.07
2023-03-13T21:16:20.148Z,9.38
2023-03-13T21:18:48.015Z,11.50
2023-03-13T21:21:18.992Z,10.32
2023-03-13T21:23:47.046Z,10.23
2023-03-13T21:26:15.266Z,10.43
2023-03-13T21:28:42.378Z,9.43
2023-03-13T21:31:15.280Z,10.35
2023-03-13T21:33:43.515Z,8.63
2023-03-13T21:36:11.911Z,7.95
2023-03-13T21:38:38.965Z,7.75
2023-03-13T21:41:15.187Z,8.55
2023-03-13T21:43:43.558Z,8.30
2023-03-13T21:46:16.494Z,9.75
2023-03-13T21:51:13.637Z,10.25
2023-03-13T21:53:42.312Z,8.73
2023-03-13T21:56:15.216Z,6.45
2023-03-13T21:58:43.031Z,9.40
2023-03-13T22:01:10.126Z,7.45
2023-03-13T22:03:37.325Z,7.45
2023-03-13T22:06:11.326Z,8.57
2023-03-13T22:08:38.425Z,6.88
2023-03-13T22:11:05.783Z,10.63
2023-03-13T22:13:32.977Z,7.30
2023-03-13T22:16:00.014Z,14.07
2023-03-13T22:18:27.091Z,8.48
2023-03-13T22:20:57.503Z,7.93
2023-03-13T22:25:55.953Z,8.68
2023-03-13T22:28:23.817Z,7.70
2023-03-13T22:30:50.966Z,7.70
2023-03-13T22:33:18.994Z,8.68
2023-03-13T22:35:52.586Z,9.00
2023-03-13T22:38:20.873Z,6.55
2023-03-13T22:40:49.176Z,9.65
2023-03-13T22:43:16.218Z,7.68
2023-03-13T22:45:43.298Z,8.18
2023-03-13T22:48:10.373Z,7.40
2023-03-13T22:50:37.424Z,8.23
2023-03-13T22:53:04.578Z,8.38
2023-03-13T22:55:34.543Z,6.95
2023-03-13T22:58:02.198Z,7.03
2023-03-13T23:00:29.202Z,6.07
2023-03-13T23:02:56.296Z,8.70
2023-03-13T23:05:23.395Z,7.72
2023-03-13T23:07:51.039Z,6.13
2023-03-13T23:10:19.351Z,7.55
2023-03-13T23:12:46.420Z,7.53
2023-03-13T23:15:13.456Z,10.50
2023-03-13T23:17:40.506Z,7.40
2023-03-13T23:20:13.120Z,8.20
2023-03-13T23:22:41.864Z,7.13
2023-03-13T23:25:10.201Z,8.95
2023-03-13T23:27:37.221Z,9.80
2023-03-13T23:30:06.342Z,6.75
2023-03-13T23:32:38.150Z,9.05
2023-03-13T23:35:06.698Z,8.80
2023-03-13T23:37:34.265Z,6.03
2023-03-13T23:40:02.966Z,7.68
2023-03-13T23:42:30.908Z,9.18
2023-03-13T23:44:58.075Z,10.23
2023-03-13T23:47:25.162Z,7.57
2023-03-13T23:49:52.590Z,6.97
2023-03-13T23:52:19.647Z,6.20
2023-03-13T23:54:46.702Z,7.45
2023-03-13T23:57:13.865Z,8.55
2023-03-13T23:59:40.926Z,6.22
